CJZ9 weather

La Ronge Seaplane Base
Saskatchewan, Canada

Public forecast

Using degrees Celsius for public forecast. Weather courtesy of forecast.io.

METAR (pilot weather report)

Closest report is La Ronge Airport, 3.2 nm (5.9 km) NNE. Retrieved 2019/05/25 06:00 UTC (43 minutes ago):

CYVC 250600Z 01007KT 15SM OVC017 07/05 A2991 RMK SC8 SLP145

TAF (pilot weather forecast)

Closest forecast is La Ronge Airport, 3.2 nm (5.9 km) NNE. Retrieved 2019/05/25 07:39 UTC (0 seconds ago):

TAF CYVC 250638Z 2507/2519 01006KT P6SM OVC015 FM251200 04008KT P6SM SCT020 RMK NXT FCST BY 251300Z